Time;durP1;ratioP1;P1;durP2;ratioP2;P2;SDS_P1;SDS_P2;PMS_P1;PMS_P2;Temp;Humidity;BMP_temperature;BMP_pressure;BME280_temperature;BME280_humidity;BME280_pressure;Samples;Min_cycle;Max_cycle;Signal;HPM_P1;HPM_P2
2021/03/21 00:03:00;;;;;;;3.47;2.40;;;;;;;5.11;87.49;100074.19;6312591;28;20294;-76
2021/03/21 00:06:04;;;;;;;4.27;2.00;;;;;;;5.06;87.77;100064.78;6311426;28;20447;-77
2021/03/21 00:09:17;;;;;;;2.20;2.10;;;;;;;5.10;87.99;100064.38;6311990;28;20217;-75
2021/03/21 00:12:20;;;;;;;2.43;2.33;;;;;;;5.24;87.03;100055.31;6312722;28;20192;-76
2021/03/21 00:15:25;;;;;;;5.17;2.10;;;;;;;5.21;87.09;100050.31;6311428;28;20222;-77
2021/03/21 00:18:33;;;;;;;2.30;2.20;;;;;;;5.15;87.31;100059.22;6312369;28;20232;-76
2021/03/21 00:21:37;;;;;;;7.20;2.37;;;;;;;5.14;87.11;100065.63;6311339;28;20398;-76
2021/03/21 00:24:40;;;;;;;2.40;2.10;;;;;;;5.18;87.05;100064.22;6311056;28;20475;-76
2021/03/21 00:27:44;;;;;;;2.43;2.23;;;;;;;5.25;85.99;100056.97;6311196;28;20512;-76
2021/03/21 00:30:50;;;;;;;2.60;2.13;;;;;;;5.18;86.17;100045.28;6311301;28;20214;-76
2021/03/21 00:33:53;;;;;;;6.63;2.23;;;;;;;5.18;85.85;100054.25;6312035;28;20216;-76
2021/03/21 00:37:00;;;;;;;4.00;2.00;;;;;;;5.10;86.13;100050.88;6311957;28;20220;-76
2021/03/21 00:40:06;;;;;;;2.43;1.80;;;;;;;5.09;86.11;100058.13;6311863;28;20189;-76
2021/03/21 00:43:11;;;;;;;4.50;2.00;;;;;;;5.15;85.61;100062.75;6311216;28;20367;-76
2021/03/21 00:46:19;;;;;;;2.90;1.90;;;;;;;4.79;86.63;100046.75;6310875;28;20426;-76
2021/03/21 00:49:22;;;;;;;2.70;1.80;;;;;;;5.08;86.03;100057.28;6312142;28;20277;-76
2021/03/21 00:52:25;;;;;;;2.40;2.00;;;;;;;5.16;85.53;100063.59;6312667;28;20193;-76
2021/03/21 00:55:28;;;;;;;1.63;1.53;;;;;;;5.21;84.75;100058.41;6315675;28;20240;-76
2021/03/21 00:58:32;;;;;;;1.80;1.70;;;;;;;5.15;84.56;100056.50;6316682;28;20185;-75
2021/03/21 01:01:37;;;;;;;1.90;1.80;;;;;;;5.16;84.99;100063.59;6315966;28;20437;-76
2021/03/21 01:04:40;;;;;;;1.70;1.50;;;;;;;5.28;83.93;100061.97;6316663;28;20186;-76
2021/03/21 01:07:43;;;;;;;2.70;2.10;;;;;;;5.15;84.22;100072.72;6316825;28;20186;-76
2021/03/21 01:10:48;;;;;;;3.07;1.80;;;;;;;5.17;84.84;100066.09;6316404;28;20217;-76
2021/03/21 01:13:52;;;;;;;1.73;1.70;;;;;;;5.05;84.36;100051.47;6315260;28;20220;-76
2021/03/21 01:16:56;;;;;;;2.00;1.70;;;;;;;5.21;84.80;100061.13;6316594;28;20187;-76
2021/03/21 01:20:00;;;;;;;2.00;1.50;;;;;;;5.19;84.62;100057.78;6298599;28;20211;-76
2021/03/21 01:23:05;;;;;;;1.77;1.73;;;;;;;5.00;84.72;100070.16;6316380;28;20218;-76
2021/03/21 01:26:11;;;;;;;3.33;1.87;;;;;;;5.09;84.83;100063.53;6297253;28;20428;-77
2021/03/21 01:29:14;;;;;;;1.73;1.73;;;;;;;5.09;84.41;100066.25;6314851;28;20404;-76
2021/03/21 01:32:19;;;;;;;1.60;1.50;;;;;;;5.15;83.44;100059.22;6314881;28;20185;-76
2021/03/21 01:35:23;;;;;;;1.50;1.50;;;;;;;5.13;84.00;100047.75;6315912;28;20185;-77
2021/03/21 01:38:26;;;;;;;1.90;1.70;;;;;;;5.17;83.26;100054.44;6314798;28;20185;-75
2021/03/21 01:41:32;;;;;;;3.43;1.90;;;;;;;4.86;82.81;100057.59;6315822;28;20190;-75
2021/03/21 01:44:36;;;;;;;2.17;1.77;;;;;;;4.79;83.16;100062.97;6298088;28;20210;-76
2021/03/21 01:47:40;;;;;;;1.80;1.70;;;;;;;4.88;82.36;100071.75;6314604;28;20230;-76
2021/03/21 01:50:48;;;;;;;3.17;1.30;;;;;;;4.78;79.36;100064.00;6315832;28;20250;-75
2021/03/21 01:53:56;;;;;;;3.03;1.10;;;;;;;4.63;76.23;100052.47;6315487;28;20250;-76
2021/03/21 01:57:00;;;;;;;1.63;1.23;;;;;;;4.72;74.25;100072.91;6314547;28;20576;-75
2021/03/21 02:00:05;;;;;;;1.87;1.23;;;;;;;4.79;72.63;100073.78;6314551;28;20217;-76
2021/03/21 02:03:18;;;;;;;1.10;1.10;;;;;;;4.82;71.82;100077.94;6306318;23;20246;-75
2021/03/21 02:06:41;;;;;;;1.73;1.20;;;;;;;4.72;72.15;100072.91;6299866;28;20240;-74
2021/03/21 02:09:55;;;;;;;1.00;1.00;;;;;;;4.65;72.02;100066.59;6289606;28;20211;-75
2021/03/21 02:13:05;;;;;;;1.40;1.20;;;;;;;4.58;71.70;100081.94;6289986;28;20195;-75
2021/03/21 02:16:15;;;;;;;9.03;1.30;;;;;;;4.49;71.45;100066.09;6290356;28;20294;-75
2021/03/21 02:19:59;;;;;;;1.33;1.33;;;;;;;4.50;72.04;100073.13;6289881;28;20260;-74
2021/03/21 02:23:07;;;;;;;1.30;1.20;;;;;;;4.55;71.72;100071.53;6287408;28;20246;-74
2021/03/21 02:26:23;;;;;;;1.47;1.37;;;;;;;4.38;73.11;100075.56;6289765;28;20188;-74
2021/03/21 02:29:33;;;;;;;1.23;1.10;;;;;;;4.44;73.24;100074.78;6289476;28;20265;-74
2021/03/21 02:32:48;;;;;;;1.50;1.17;;;;;;;4.36;73.21;100093.81;6288547;28;20194;-74
2021/03/21 02:35:57;;;;;;;1.37;1.27;;;;;;;4.36;71.13;100093.81;6288242;28;20192;-75
2021/03/21 02:39:09;;;;;;;1.07;1.07;;;;;;;4.22;67.54;100109.06;6288979;28;20194;-74
2021/03/21 02:42:19;;;;;;;1.07;1.07;;;;;;;4.25;64.49;100088.94;6288215;28;20526;-75
2021/03/21 02:45:27;;;;;;;1.43;1.10;;;;;;;4.27;63.97;100100.38;6289329;28;20188;-75
2021/03/21 02:48:35;;;;;;;1.30;1.20;;;;;;;4.20;62.40;100104.88;6289202;28;20254;-74
2021/03/21 02:51:44;;;;;;;1.00;1.00;;;;;;;4.09;61.27;100086.50;6289080;28;20221;-74
2021/03/21 02:54:53;;;;;;;1.63;1.00;;;;;;;4.14;60.73;100101.09;6288538;28;20248;-74
2021/03/21 02:58:01;;;;;;;1.10;1.10;;;;;;;3.96;60.21;100080.97;6287725;28;20209;-74
2021/03/21 03:01:10;;;;;;;1.17;1.00;;;;;;;4.05;58.77;100096.88;6288098;28;20220;-75
2021/03/21 03:04:18;;;;;;;2.53;1.10;;;;;;;4.04;59.65;100083.53;6299933;28;20304;-73
2021/03/21 03:07:27;;;;;;;1.60;1.07;;;;;;;3.62;56.62;100047.41;6312294;28;20445;-74
2021/03/21 03:10:33;;;;;;;3.00;1.27;;;;;;;4.01;57.29;100116.31;6312744;28;20437;-75
2021/03/21 03:13:40;;;;;;;1.00;1.00;;;;;;;3.89;56.35;100117.84;6325547;28;20220;-74
2021/03/21 03:16:51;;;;;;;0.97;0.97;;;;;;;3.90;56.60;100119.53;6313142;28;20223;-74
2021/03/21 03:20:04;;;;;;;3.80;1.10;;;;;;;3.67;56.03;100081.94;6311936;28;20220;-74
2021/03/21 03:23:25;;;;;;;1.07;0.87;;;;;;;3.92;55.87;100128.28;6313345;28;20185;-74
2021/03/21 03:26:40;;;;;;;3.33;1.20;;;;;;;3.99;55.57;100134.56;6312645;28;20225;-74
2021/03/21 03:30:08;;;;;;;1.37;1.23;;;;;;;3.90;54.79;100131.19;6311804;28;20440;-74
2021/03/21 03:33:23;;;;;;;2.23;1.13;;;;;;;3.79;55.09;100128.97;6312592;28;20217;-74
2021/03/21 03:36:26;;;;;;;1.13;1.00;;;;;;;3.72;54.93;100139.66;6311449;28;20186;-74
2021/03/21 03:39:31;;;;;;;2.07;0.90;;;;;;;3.79;55.13;100151.41;6312783;28;20188;-75
2021/03/21 03:42:44;;;;;;;1.20;1.20;;;;;;;3.79;55.48;100151.41;6312789;28;20187;-75
2021/03/21 03:45:58;;;;;;;2.60;1.20;;;;;;;3.70;55.89;100136.31;6312715;28;20223;-74
2021/03/21 03:49:16;;;;;;;0.80;0.80;;;;;;;3.76;54.73;100150.91;6311365;28;20373;-75
2021/03/21 03:52:44;;;;;;;2.90;1.20;;;;;;;3.77;54.58;100174.19;6311267;28;20216;-75
2021/03/21 03:55:56;;;;;;;3.87;0.90;;;;;;;3.91;53.72;100167.91;6312719;28;20185;-74
2021/03/21 03:59:08;;;;;;;1.03;1.03;;;;;;;3.65;54.13;100165.72;6311105;28;20474;-74
2021/03/21 04:02:18;;;;;;;1.27;1.10;;;;;;;3.65;54.71;100171.13;6311831;28;20229;-75
2021/03/21 04:05:28;;;;;;;0.97;0.97;;;;;;;3.61;54.79;100164.44;6311390;28;20525;-74
2021/03/21 04:08:41;;;;;;;1.17;1.10;;;;;;;3.59;55.07;100150.31;6310931;28;20445;-74
2021/03/21 04:11:50;;;;;;;1.00;1.00;;;;;;;3.60;54.11;100195.13;6312061;28;20207;-74
2021/03/21 04:15:03;;;;;;;1.30;1.17;;;;;;;3.41;54.61;100184.94;6311754;28;20308;-75
2021/03/21 04:18:17;;;;;;;1.70;0.97;;;;;;;3.42;54.89;100154.22;6312107;28;20239;-74
2021/03/21 04:21:26;;;;;;;1.03;0.97;;;;;;;3.35;55.91;100169.50;6323835;28;20188;-73
2021/03/21 04:24:36;;;;;;;1.53;0.80;;;;;;;3.52;54.73;100180.91;6312065;28;20195;-74
2021/03/21 04:27:43;;;;;;;0.90;0.90;;;;;;;3.47;55.00;100184.16;6311098;28;20183;-75
2021/03/21 04:30:52;;;;;;;0.90;0.90;;;;;;;3.50;53.84;100183.81;6311744;28;20211;-74
2021/03/21 04:33:59;;;;;;;1.00;0.87;;;;;;;3.39;55.00;100176.16;6310599;28;20352;-74
2021/03/21 04:37:06;;;;;;;1.07;1.00;;;;;;;3.25;54.45;100178.88;6310723;28;20187;-74
2021/03/21 04:40:12;;;;;;;1.43;0.80;;;;;;;3.35;55.35;100191.06;6310990;28;20199;-74
2021/03/21 04:43:23;;;;;;;1.70;1.00;;;;;;;3.20;54.95;100167.81;6311657;28;20187;-74
2021/03/21 04:46:36;;;;;;;2.07;0.80;;;;;;;3.26;55.12;100185.97;6312191;28;20190;-74
2021/03/21 04:49:39;;;;;;;0.90;0.90;;;;;;;3.29;55.45;100191.78;6310690;28;20194;-74
2021/03/21 04:52:48;;;;;;;1.93;0.90;;;;;;;3.21;56.33;100209.94;6312125;28;20225;-74
2021/03/21 04:55:57;;;;;;;2.67;1.03;;;;;;;3.28;55.46;100211.72;6311387;28;20184;-74
2021/03/21 04:59:06;;;;;;;1.10;1.10;;;;;;;3.22;56.17;100225.91;6293183;28;20232;-74
2021/03/21 05:02:15;;;;;;;1.40;1.00;;;;;;;2.95;55.76;100194.19;6311460;28;20219;-74
2021/03/21 05:05:29;;;;;;;0.97;0.90;;;;;;;3.18;55.34;100222.75;6284362;28;20270;-74
2021/03/21 05:08:39;;;;;;;2.40;0.90;;;;;;;3.29;54.99;100229.53;6285255;28;20486;-74
2021/03/21 05:11:49;;;;;;;0.90;0.90;;;;;;;3.11;55.51;100231.75;6285567;28;20215;-74
2021/03/21 05:14:59;;;;;;;1.00;1.00;;;;;;;3.03;55.55;100245.31;6285096;28;20501;-75
2021/03/21 05:18:15;;;;;;;1.10;1.00;;;;;;;3.00;55.33;100241.13;6285907;28;20193;-74
2021/03/21 05:21:25;;;;;;;1.10;1.10;;;;;;;2.97;56.36;100240.66;6286127;28;20194;-74
2021/03/21 05:24:38;;;;;;;4.77;1.00;;;;;;;3.00;55.89;100234.91;6285179;28;20356;-74
2021/03/21 05:27:44;;;;;;;1.93;1.20;;;;;;;3.15;57.21;100254.63;6288214;28;20188;-74
2021/03/21 05:30:50;;;;;;;1.20;1.10;;;;;;;3.03;55.64;100234.53;6294365;28;20216;-74
2021/03/21 05:33:54;;;;;;;1.13;1.00;;;;;;;3.11;55.21;100259.53;6285053;28;20193;-74
2021/03/21 05:37:09;;;;;;;1.00;1.00;;;;;;;2.98;55.87;100247.69;6286350;28;20234;-74
2021/03/21 05:41:02;;;;;;;2.23;1.03;;;;;;;3.04;55.12;100274.78;6286854;28;20519;-74
2021/03/21 05:44:34;;;;;;;1.03;0.93;;;;;;;3.09;54.47;100271.53;6289226;28;20387;-74
2021/03/21 05:48:07;;;;;;;3.47;0.90;;;;;;;3.10;54.55;100274.06;6290591;28;20187;-74
2021/03/21 05:51:29;;;;;;;0.90;0.90;;;;;;;3.14;54.52;100274.50;6290494;28;20210;-75
2021/03/21 05:54:59;;;;;;;1.30;1.07;;;;;;;3.10;54.95;100284.00;6290383;28;20185;-74
2021/03/21 05:58:36;;;;;;;1.30;1.00;;;;;;;3.21;54.49;100278.13;6289902;28;20204;-75
2021/03/21 06:02:15;;;;;;;1.20;1.10;;;;;;;3.13;53.67;100260.19;6289693;28;20190;-74
2021/03/21 06:05:58;;;;;;;1.03;1.03;;;;;;;3.34;53.18;100281.03;6267889;28;20237;-74
2021/03/21 06:09:11;;;;;;;0.87;0.87;;;;;;;3.35;53.39;100298.91;6265096;28;20254;-75
2021/03/21 06:12:42;;;;;;;0.87;0.87;;;;;;;3.37;54.00;100286.06;6264627;28;20228;-73
2021/03/21 06:16:28;;;;;;;0.90;0.90;;;;;;;3.33;53.42;100300.97;6265208;28;20260;-74
2021/03/21 06:20:20;;;;;;;0.93;0.93;;;;;;;3.39;52.64;100315.56;6250116;28;20208;-74
2021/03/21 06:23:52;;;;;;;6.00;1.03;;;;;;;3.31;52.79;100308.41;6247054;28;20207;-74
2021/03/21 06:27:09;;;;;;;0.90;0.90;;;;;;;3.17;52.97;100290.31;6263836;28;20499;-74
2021/03/21 06:30:38;;;;;;;1.77;0.93;;;;;;;3.41;51.76;100327.84;6264742;28;20287;-74
2021/03/21 06:33:52;;;;;;;2.00;0.90;;;;;;;3.44;52.33;100318.56;6264703;28;20197;-74
2021/03/21 06:37:01;;;;;;;2.20;0.77;;;;;;;3.51;51.56;100325.72;6274031;28;20185;-74
2021/03/21 06:40:32;;;;;;;0.90;0.90;;;;;;;3.52;50.71;100322.00;6266061;28;20187;-74
2021/03/21 06:44:00;;;;;;;7.90;1.10;;;;;;;3.52;51.74;100300.41;6264201;28;20186;-74
2021/03/21 06:47:19;;;;;;;0.70;0.70;;;;;;;3.53;51.54;100306.66;6262815;28;20186;-74
2021/03/21 06:50:42;;;;;;;0.90;0.90;;;;;;;3.73;50.87;100318.56;6263598;28;20199;-74
2021/03/21 06:53:55;;;;;;;1.00;1.00;;;;;;;3.57;50.80;100314.19;6244957;28;20222;-73
2021/03/21 06:57:37;;;;;;;0.83;0.83;;;;;;;3.73;49.30;100335.59;6263491;28;20202;-74
2021/03/21 07:01:29;;;;;;;5.13;1.10;;;;;;;3.89;49.81;100342.69;6263553;28;20211;-74
2021/03/21 07:04:58;;;;;;;0.87;0.87;;;;;;;4.01;48.76;100348.44;6161542;28;20238;-75
2021/03/21 07:08:36;;;;;;;0.93;0.90;;;;;;;3.93;48.70;100362.06;6200713;28;20210;-75
2021/03/21 07:12:12;;;;;;;0.87;0.87;;;;;;;3.96;48.89;100364.34;6231894;28;20234;-74
2021/03/21 07:15:50;;;;;;;1.97;0.83;;;;;;;3.98;48.20;100359.63;6230953;28;20235;-74
2021/03/21 07:19:26;;;;;;;1.40;1.00;;;;;;;4.08;47.34;100377.22;6261793;28;20233;-74
2021/03/21 07:23:07;;;;;;;2.30;1.20;;;;;;;4.07;46.57;100385.50;6262869;28;20191;-74
2021/03/21 07:26:28;;;;;;;1.50;0.80;;;;;;;4.16;47.38;100390.59;6262717;28;20197;-74
2021/03/21 07:29:42;;;;;;;6.17;0.93;;;;;;;4.18;48.67;100382.34;6262537;28;20188;-74
2021/03/21 07:33:26;;;;;;;0.73;0.73;;;;;;;4.18;47.48;100393.13;6262901;28;20218;-75
2021/03/21 07:36:43;;;;;;;1.97;0.90;;;;;;;4.25;46.95;100394.06;6262482;28;20207;-74
2021/03/21 07:40:09;;;;;;;6.33;0.90;;;;;;;4.22;46.65;100399.81;6262350;28;20186;-75
2021/03/21 07:43:35;;;;;;;1.70;0.70;;;;;;;4.21;46.40;100403.56;6262595;28;20258;-75
2021/03/21 07:46:45;;;;;;;1.40;0.80;;;;;;;4.12;45.30;100393.88;6270759;28;20227;-74
2021/03/21 07:50:10;;;;;;;2.33;0.80;;;;;;;4.24;45.09;100403.19;6262034;28;20197;-75
2021/03/21 07:53:23;;;;;;;0.83;0.83;;;;;;;4.33;45.51;100413.72;6261023;28;20211;-74
2021/03/21 07:56:33;;;;;;;2.40;1.00;;;;;;;4.43;45.01;100413.41;6262072;28;20226;-77
2021/03/21 07:59:37;;;;;;;6.70;0.90;;;;;;;4.47;44.38;100430.91;6260977;28;20206;-73
2021/03/21 08:02:40;;;;;;;4.37;0.97;;;;;;;4.47;43.60;100425.50;6261524;28;20271;-74
2021/03/21 08:05:45;;;;;;;0.93;0.90;;;;;;;4.48;43.99;100423.66;6285548;28;20262;-74
2021/03/21 08:09:00;;;;;;;1.00;0.90;;;;;;;4.53;44.30;100457.19;6286742;28;20250;-75
2021/03/21 08:12:30;;;;;;;3.67;0.97;;;;;;;4.45;43.60;100432.97;6286698;28;20226;-74
2021/03/21 08:15:37;;;;;;;1.23;0.70;;;;;;;4.54;43.16;100437.28;6286166;28;20296;-75
2021/03/21 08:18:44;;;;;;;2.87;0.83;;;;;;;4.50;42.95;100422.44;6286548;28;20296;-74
2021/03/21 08:21:48;;;;;;;4.00;1.00;;;;;;;4.59;43.58;100429.44;6286568;28;20187;-76
2021/03/21 08:24:55;;;;;;;0.80;0.80;;;;;;;4.55;43.44;100463.25;6286535;28;20188;-74
2021/03/21 08:27:58;;;;;;;0.70;0.70;;;;;;;4.51;42.26;100453.84;6286779;28;20189;-74
2021/03/21 08:31:04;;;;;;;0.67;0.67;;;;;;;4.39;42.23;100439.16;6285686;28;20215;-75
2021/03/21 08:34:41;;;;;;;0.90;0.90;;;;;;;4.40;43.03;100457.00;6286544;28;20198;-74
2021/03/21 08:37:47;;;;;;;1.40;1.07;;;;;;;4.50;42.19;100464.81;6285918;28;20209;-74
2021/03/21 08:41:00;;;;;;;2.80;0.80;;;;;;;4.67;42.99;100466.31;6286488;28;20258;-74
2021/03/21 08:44:06;;;;;;;1.10;0.80;;;;;;;4.64;42.91;100481.06;6267906;28;20265;-75
2021/03/21 08:47:17;;;;;;;2.00;0.80;;;;;;;4.70;42.47;100472.16;6286166;28;20218;-76
2021/03/21 08:50:32;;;;;;;2.20;0.80;;;;;;;4.75;43.00;100467.03;6285870;28;20539;-74
2021/03/21 08:53:41;;;;;;;5.20;0.73;;;;;;;4.57;41.69;100453.06;6297667;28;20349;-75
2021/03/21 08:56:58;;;;;;;1.00;1.00;;;;;;;4.82;42.29;100499.56;6300606;28;20203;-75
2021/03/21 09:00:16;;;;;;;0.87;0.87;;;;;;;4.88;41.78;100483.44;6285862;28;20187;-74
2021/03/21 09:03:32;;;;;;;1.93;1.07;;;;;;;4.68;41.22;100482.34;6269734;28;20297;-74
2021/03/21 09:06:38;;;;;;;3.53;0.90;;;;;;;4.69;40.94;100494.84;6286165;28;20195;-74
2021/03/21 09:09:43;;;;;;;1.17;0.90;;;;;;;4.56;40.25;100451.41;6285160;28;20535;-74
2021/03/21 09:12:47;;;;;;;1.67;0.80;;;;;;;4.73;40.81;100471.81;6285495;28;20218;-74
2021/03/21 09:16:07;;;;;;;4.23;0.93;;;;;;;4.78;41.25;100493.69;6290712;28;20192;-74
2021/03/21 09:19:18;;;;;;;9.37;0.90;;;;;;;4.77;40.11;100486.63;6290087;28;20194;-75
2021/03/21 09:22:32;;;;;;;0.80;0.80;;;;;;;4.94;40.41;100515.13;6290720;28;20256;-75
2021/03/21 09:25:49;;;;;;;0.93;0.90;;;;;;;4.90;40.38;100485.97;6290340;28;20219;-74
2021/03/21 09:28:56;;;;;;;1.80;1.07;;;;;;;4.87;39.31;100487.19;6289467;28;20211;-75
2021/03/21 09:32:04;;;;;;;2.37;0.80;;;;;;;5.06;39.81;100524.41;6290531;28;20280;-73
2021/03/21 09:35:34;;;;;;;1.40;0.90;;;;;;;5.01;39.81;100524.16;6290191;28;20190;-75
2021/03/21 09:38:49;;;;;;;0.90;0.90;;;;;;;5.11;39.36;100536.56;6290458;28;20193;-75
2021/03/21 09:41:54;;;;;;;1.67;1.57;;;;;;;5.14;39.04;100525.34;6289683;28;20192;-75
2021/03/21 09:44:58;;;;;;;1.83;1.70;;;;;;;5.07;38.75;100536.94;6281865;28;20192;-75
2021/03/21 09:48:04;;;;;;;2.23;1.27;;;;;;;5.10;39.00;100541.13;6290624;28;20255;-75
2021/03/21 09:51:14;;;;;;;1.47;1.43;;;;;;;5.17;38.92;100546.59;6289337;28;20195;-74
2021/03/21 09:54:40;;;;;;;2.73;1.30;;;;;;;5.32;38.13;100550.09;6290542;28;20196;-76
2021/03/21 09:58:05;;;;;;;1.47;1.37;;;;;;;5.29;38.68;100555.94;6289611;28;20188;-76
2021/03/21 10:01:20;;;;;;;4.03;3.73;;;;;;;5.41;37.75;100576.03;6299381;28;20218;-74
2021/03/21 10:04:34;;;;;;;2.27;2.10;;;;;;;5.19;36.98;100571.63;6290639;28;20264;-75
2021/03/21 10:07:48;;;;;;;3.53;1.40;;;;;;;5.28;37.63;100581.28;6289179;28;20195;-74
2021/03/21 10:10:55;;;;;;;1.43;1.33;;;;;;;5.46;38.12;100595.25;6289760;28;20231;-74
2021/03/21 10:14:00;;;;;;;4.93;1.10;;;;;;;5.31;36.66;100587.16;6288232;28;20251;-74
2021/03/21 10:17:38;;;;;;;1.10;1.10;;;;;;;5.49;35.76;100605.69;6289207;28;20268;-74
2021/03/21 10:21:27;;;;;;;2.37;1.10;;;;;;;5.54;35.94;100600.56;6279987;28;20309;-73
2021/03/21 10:24:31;;;;;;;0.93;0.93;;;;;;;5.58;36.37;100604.53;6288957;28;20188;-74
2021/03/21 10:27:43;;;;;;;1.57;1.47;;;;;;;5.49;36.22;100605.69;6287725;28;20467;-74
2021/03/21 10:31:31;;;;;;;2.40;1.27;;;;;;;5.67;35.66;100633.19;6271285;28;20271;-74
2021/03/21 10:34:40;;;;;;;1.90;1.00;;;;;;;5.71;36.32;100612.81;6212108;28;20209;-77
2021/03/21 10:37:54;;;;;;;1.30;1.30;;;;;;;5.86;36.44;100608.22;6287519;28;20334;-75
2021/03/21 10:40:57;;;;;;;1.27;1.00;;;;;;;5.77;36.25;100620.19;6287870;28;20197;-75
2021/03/21 10:44:01;;;;;;;4.33;1.03;;;;;;;5.74;35.79;100611.59;6288205;28;20197;-75
2021/03/21 10:47:09;;;;;;;0.93;0.93;;;;;;;5.82;36.20;100633.13;6288218;28;20186;-75
2021/03/21 10:50:55;;;;;;;2.63;1.10;;;;;;;5.98;36.24;100654.59;6287472;28;20190;-76
2021/03/21 10:54:23;;;;;;;2.97;1.00;;;;;;;5.91;35.88;100637.44;6288824;28;20260;-76
2021/03/21 10:57:44;;;;;;;2.93;1.10;;;;;;;5.90;35.02;100674.53;6287426;28;20373;-76
2021/03/21 11:01:22;;;;;;;0.97;0.93;;;;;;;5.68;35.25;100648.38;6288207;28;20256;-75
2021/03/21 11:04:32;;;;;;;2.47;1.50;;;;;;;5.89;35.17;100645.75;6287680;28;20233;-75
2021/03/21 11:07:37;;;;;;;0.80;0.80;;;;;;;5.85;34.47;100649.88;6288887;28;20519;-75
2021/03/21 11:10:42;;;;;;;2.00;1.40;;;;;;;6.04;34.35;100643.84;6302419;28;20185;-74
2021/03/21 11:13:46;;;;;;;5.17;1.53;;;;;;;5.84;34.47;100637.34;6287665;28;20259;-75
2021/03/21 11:16:53;;;;;;;2.20;1.30;;;;;;;5.99;34.06;100651.69;6288180;28;20187;-75
2021/03/21 11:20:27;;;;;;;1.37;1.00;;;;;;;6.14;32.98;100655.19;6287694;28;20226;-74
2021/03/21 11:23:41;;;;;;;1.53;1.10;;;;;;;6.14;34.23;100666.03;6288149;28;20188;-74
2021/03/21 11:26:45;;;;;;;2.17;0.97;;;;;;;6.23;33.85;100669.44;6287944;28;20209;-74
2021/03/21 11:29:49;;;;;;;2.07;1.87;;;;;;;6.18;34.61;100667.34;6287905;28;20190;-74
2021/03/21 11:32:52;;;;;;;1.00;0.90;;;;;;;6.30;34.94;100683.91;6269094;28;20304;-75
2021/03/21 11:36:09;;;;;;;1.20;1.00;;;;;;;6.27;34.60;100689.69;6286796;28;20187;-75
2021/03/21 11:39:18;;;;;;;0.93;0.93;;;;;;;6.16;34.36;100674.78;6287897;28;20193;-75
2021/03/21 11:42:24;;;;;;;2.00;1.20;;;;;;;6.29;34.07;100691.19;6287535;28;20202;-74
2021/03/21 11:45:31;;;;;;;2.93;1.17;;;;;;;6.16;32.93;100653.13;6286282;28;20218;-75
2021/03/21 11:48:37;;;;;;;3.73;1.30;;;;;;;6.44;33.20;100676.75;6286580;28;20270;-74
2021/03/21 11:51:43;;;;;;;3.60;1.23;;;;;;;6.26;33.12;100633.84;6285386;28;20268;-74
2021/03/21 11:54:47;;;;;;;1.30;1.30;;;;;;;6.50;32.43;100684.09;6285824;28;20186;-75
2021/03/21 11:58:07;;;;;;;6.00;2.77;;;;;;;6.44;32.70;100683.00;6286704;28;20185;-75
2021/03/21 12:01:16;;;;;;;1.20;1.20;;;;;;;6.45;32.45;100649.44;6286651;28;20270;-76
2021/03/21 12:04:35;;;;;;;1.83;1.00;;;;;;;6.57;33.39;100672.31;6285736;28;20565;-75
2021/03/21 12:07:39;;;;;;;5.73;1.20;;;;;;;6.72;32.36;100700.16;6286613;28;20186;-75
2021/03/21 12:10:44;;;;;;;1.10;1.00;;;;;;;6.57;31.94;100693.13;6286416;28;20504;-76
2021/03/21 12:13:52;;;;;;;1.03;1.03;;;;;;;6.29;31.68;100664.09;6287515;28;20215;-76
2021/03/21 12:16:57;;;;;;;7.00;1.80;;;;;;;6.66;32.12;100697.38;6294763;28;20178;-75
2021/03/21 12:20:30;;;;;;;5.43;1.17;;;;;;;6.71;33.19;100695.75;6273025;28;20205;-76
2021/03/21 12:23:37;;;;;;;1.70;1.30;;;;;;;6.74;33.32;100702.66;6286643;28;20367;-75
2021/03/21 12:27:02;;;;;;;3.60;1.00;;;;;;;6.59;32.56;100696.47;6286511;28;20259;-75
2021/03/21 12:30:14;;;;;;;8.17;1.47;;;;;;;6.44;32.37;100676.75;6286887;28;20233;-75
2021/03/21 12:33:32;;;;;;;1.03;1.03;;;;;;;6.61;31.71;100710.69;6286625;28;20252;-76
2021/03/21 12:36:36;;;;;;;3.83;1.10;;;;;;;6.72;31.79;100699.31;6285402;28;20475;-75
2021/03/21 12:39:44;;;;;;;9.20;0.93;;;;;;;6.67;32.33;100716.19;6286285;28;20186;-75
2021/03/21 12:42:49;;;;;;;1.83;1.17;;;;;;;6.45;32.79;100690.09;6286252;28;20190;-75
2021/03/21 12:46:03;;;;;;;1.13;1.03;;;;;;;6.66;31.79;100702.78;6285610;28;20195;-75
2021/03/21 12:49:26;;;;;;;3.17;1.20;;;;;;;6.51;30.88;100677.63;6287239;28;20539;-76
2021/03/21 12:52:46;;;;;;;2.63;1.00;;;;;;;6.61;31.36;100697.97;6291312;28;20243;-76
2021/03/21 12:55:51;;;;;;;1.70;1.00;;;;;;;6.45;31.17;100662.16;6290232;28;20240;-77
2021/03/21 12:58:55;;;;;;;2.27;1.20;;;;;;;6.68;31.77;100695.31;6291548;28;20310;-76
2021/03/21 13:01:58;;;;;;;1.83;0.90;;;;;;;6.81;31.77;100700.84;6291224;28;20186;-77
2021/03/21 13:05:05;;;;;;;1.00;1.00;;;;;;;6.89;32.22;100698.00;6290316;28;20234;-76
2021/03/21 13:08:15;;;;;;;2.97;1.00;;;;;;;6.83;31.50;100715.06;6290970;28;20187;-75
2021/03/21 13:11:19;;;;;;;2.33;1.20;;;;;;;6.91;32.61;100729.31;6291424;28;20188;-77
2021/03/21 13:14:23;;;;;;;3.13;1.00;;;;;;;6.78;32.37;100712.06;6291729;28;20222;-77
2021/03/21 13:17:27;;;;;;;2.13;1.10;;;;;;;6.59;32.80;100718.19;6290522;28;20187;-76
2021/03/21 13:20:33;;;;;;;6.73;1.10;;;;;;;6.69;32.68;100740.38;6289708;28;20501;-76
2021/03/21 13:23:36;;;;;;;5.07;2.07;;;;;;;6.64;32.44;100726.56;6290696;28;20454;-76
2021/03/21 13:26:40;;;;;;;3.87;1.20;;;;;;;6.71;31.92;100741.00;6301842;28;20381;-76
2021/03/21 13:29:44;;;;;;;3.57;1.10;;;;;;;6.69;31.94;100734.94;6290137;28;20209;-77
2021/03/21 13:32:50;;;;;;;5.27;0.93;;;;;;;6.66;31.98;100747.03;6290644;28;20226;-78
2021/03/21 13:35:55;;;;;;;1.53;1.07;;;;;;;6.55;31.93;100727.75;6290717;28;20195;-78
2021/03/21 13:38:58;;;;;;;1.20;1.10;;;;;;;6.73;32.01;100741.66;6282653;28;20187;-77
2021/03/21 13:42:09;;;;;;;2.37;1.20;;;;;;;6.61;30.87;100732.38;6291637;28;20258;-77
2021/03/21 13:45:17;;;;;;;2.63;1.00;;;;;;;6.50;31.62;100708.47;6290295;28;20191;-77
2021/03/21 13:48:29;;;;;;;6.03;1.23;;;;;;;6.20;32.10;100664.41;6290959;28;20188;-78
2021/03/21 13:51:32;;;;;;;2.63;0.90;;;;;;;6.50;32.47;100751.84;6290478;28;20188;-77
2021/03/21 13:54:36;;;;;;;1.30;1.20;;;;;;;6.62;32.34;100775.56;6289655;28;20348;-76
2021/03/21 13:57:40;;;;;;;3.27;0.90;;;;;;;6.50;32.60;100762.69;6289230;28;20523;-76
2021/03/21 14:00:44;;;;;;;1.87;1.10;;;;;;;6.74;32.76;100765.03;6288794;28;20187;-76
2021/03/21 14:03:55;;;;;;;1.03;0.80;;;;;;;6.64;32.63;100764.50;6289290;28;20264;-76
2021/03/21 14:06:58;;;;;;;1.50;1.50;;;;;;;6.64;32.37;100775.34;6282579;28;20186;-76
2021/03/21 14:10:01;;;;;;;2.17;1.07;;;;;;;6.45;32.72;100765.13;6290388;28;20195;-76
2021/03/21 14:13:10;;;;;;;2.53;1.00;;;;;;;6.55;32.34;100781.94;6288995;28;20225;-76
2021/03/21 14:16:14;;;;;;;2.23;1.07;;;;;;;6.46;33.39;100772.25;6288944;28;20193;-76
2021/03/21 14:19:19;;;;;;;3.40;1.13;;;;;;;6.36;32.46;100772.56;6288956;28;20470;-76
2021/03/21 14:22:22;;;;;;;3.03;1.40;;;;;;;6.44;32.51;100774.31;6289140;28;20305;-77
2021/03/21 14:25:26;;;;;;;1.17;1.13;;;;;;;6.50;32.51;100795.22;6288851;28;20211;-76
2021/03/21 14:28:34;;;;;;;2.40;1.00;;;;;;;6.32;32.85;100777.50;6289700;28;20210;-76
2021/03/21 14:31:39;;;;;;;5.73;1.13;;;;;;;6.41;33.64;100807.22;6289191;28;20506;-75
2021/03/21 14:34:42;;;;;;;2.20;0.90;;;;;;;6.34;33.79;100814.44;6297487;28;20280;-77
2021/03/21 14:37:46;;;;;;;0.90;0.90;;;;;;;6.26;32.59;100772.03;6289839;28;20186;-76
2021/03/21 14:40:50;;;;;;;1.17;1.10;;;;;;;6.46;32.74;100796.63;6292087;28;20187;-75
2021/03/21 14:43:53;;;;;;;1.70;1.10;;;;;;;6.46;32.86;100799.34;6292649;28;20235;-75
2021/03/21 14:46:57;;;;;;;2.10;1.00;;;;;;;6.52;33.16;100806.72;6288653;28;20305;-76
2021/03/21 14:50:01;;;;;;;3.90;2.30;;;;;;;6.53;33.69;100811.09;6295926;28;20469;-75
2021/03/21 14:53:05;;;;;;;1.00;1.00;;;;;;;6.55;33.69;100817.19;6298672;28;20214;-75
2021/03/21 14:56:10;;;;;;;5.20;0.83;;;;;;;6.22;32.79;100792.38;6290708;28;20194;-75
2021/03/21 14:59:14;;;;;;;4.60;1.10;;;;;;;6.28;32.61;100852.09;6289054;28;20225;-76
2021/03/21 15:02:19;;;;;;;0.90;0.90;;;;;;;6.17;32.83;100811.94;6289075;28;20249;-76
2021/03/21 15:05:25;;;;;;;1.47;1.00;;;;;;;6.18;32.44;100802.78;6288036;28;20241;-75
2021/03/21 15:08:36;;;;;;;0.90;0.90;;;;;;;6.32;32.70;100830.84;6289043;28;20235;-75